createdAt,value
2023-05-21T00:00:41.064Z,16.29
2023-05-21T00:01:41.088Z,16.29
2023-05-21T00:02:41.143Z,16.32
2023-05-21T00:03:41.283Z,16.36
2023-05-21T00:04:41.077Z,16.40
2023-05-21T00:05:41.066Z,16.48
2023-05-21T00:06:41.071Z,16.52
2023-05-21T00:07:41.032Z,16.55
2023-05-21T00:08:41.023Z,16.56
2023-05-21T00:09:41.085Z,16.45
2023-05-21T00:10:41.058Z,16.40
2023-05-21T00:11:41.045Z,16.43
2023-05-21T00:12:41.070Z,16.47
2023-05-21T00:13:41.062Z,16.50
2023-05-21T00:14:41.119Z,16.39
2023-05-21T00:15:41.152Z,16.23
2023-05-21T00:16:41.157Z,16.16
2023-05-21T00:17:41.252Z,16.14
2023-05-21T00:18:41.249Z,16.20
2023-05-21T00:19:41.269Z,16.21
2023-05-21T00:20:41.293Z,16.20
2023-05-21T00:21:41.263Z,16.25
2023-05-21T00:22:41.258Z,16.25
2023-05-21T00:23:41.305Z,16.23
2023-05-21T00:24:41.335Z,16.20
2023-05-21T00:25:41.390Z,16.08
2023-05-21T00:26:41.422Z,15.91
2023-05-21T00:27:41.444Z,15.77
2023-05-21T00:28:41.493Z,15.80
2023-05-21T00:29:44.172Z,15.85
2023-05-21T00:30:41.488Z,15.86
2023-05-21T00:31:41.587Z,15.88
2023-05-21T00:32:41.553Z,15.87
2023-05-21T00:33:41.567Z,15.77
2023-05-21T00:34:41.494Z,15.73
2023-05-21T00:35:41.494Z,15.69
2023-05-21T00:36:41.469Z,15.74
2023-05-21T00:37:41.501Z,15.77
2023-05-21T00:38:41.478Z,15.76
2023-05-21T00:39:41.458Z,15.73
2023-05-21T00:40:41.457Z,15.61
2023-05-21T00:41:41.440Z,15.54
2023-05-21T00:42:41.437Z,15.55
2023-05-21T00:43:41.500Z,15.56
2023-05-21T00:44:41.429Z,15.55
2023-05-21T00:45:41.411Z,15.51
2023-05-21T00:46:41.403Z,15.54
2023-05-21T00:47:41.465Z,15.57
2023-05-21T00:48:41.437Z,15.55
2023-05-21T00:49:41.410Z,15.56
2023-05-21T00:50:41.432Z,15.48
2023-05-21T00:51:41.397Z,15.53
2023-05-21T00:52:41.382Z,15.50
2023-05-21T00:53:41.363Z,15.50
2023-05-21T00:54:41.372Z,15.49
2023-05-21T00:55:41.353Z,15.48
2023-05-21T00:56:41.350Z,15.48
2023-05-21T00:57:41.334Z,15.52
2023-05-21T00:58:41.338Z,15.54
2023-05-21T00:59:41.330Z,15.57
2023-05-21T01:00:41.303Z,15.53
2023-05-21T01:01:41.310Z,15.45
2023-05-21T01:02:41.421Z,15.36
2023-05-21T01:03:41.421Z,15.25
2023-05-21T01:04:41.297Z,15.17
2023-05-21T01:05:41.304Z,15.15
2023-05-21T01:06:41.248Z,15.19
2023-05-21T01:07:41.288Z,15.20
2023-05-21T01:08:41.261Z,15.15
2023-05-21T01:09:41.229Z,15.11
2023-05-21T01:10:41.268Z,14.98
2023-05-21T01:11:41.271Z,15.03
2023-05-21T01:12:41.228Z,15.10
2023-05-21T01:13:41.304Z,15.14
2023-05-21T01:14:41.197Z,15.17
2023-05-21T01:15:41.236Z,15.17
2023-05-21T01:16:41.259Z,15.12
2023-05-21T01:17:41.286Z,15.00
2023-05-21T01:18:41.289Z,15.02
2023-05-21T01:19:41.217Z,14.98
2023-05-21T01:20:41.230Z,14.91
2023-05-21T01:21:41.183Z,14.94
2023-05-21T01:22:41.155Z,14.96
2023-05-21T01:23:41.147Z,15.01
2023-05-21T01:24:41.167Z,15.04
2023-05-21T01:25:41.173Z,14.98
2023-05-21T01:26:41.147Z,15.00
2023-05-21T01:27:41.160Z,15.01
2023-05-21T01:28:41.939Z,15.05
2023-05-21T01:29:41.141Z,15.08
2023-05-21T01:30:41.133Z,15.12
2023-05-21T01:31:41.101Z,15.15
2023-05-21T01:32:41.131Z,15.18
2023-05-21T01:33:41.140Z,15.20
2023-05-21T01:34:41.100Z,15.19
2023-05-21T01:35:41.101Z,15.17
2023-05-21T01:36:41.082Z,15.10
2023-05-21T01:37:41.052Z,15.03
2023-05-21T01:38:41.078Z,15.00
2023-05-21T01:39:41.115Z,15.01
2023-05-21T01:40:41.130Z,15.02
2023-05-21T01:41:41.218Z,14.81
2023-05-21T01:42:42.167Z,14.84
2023-05-21T01:43:41.215Z,14.83
2023-05-21T01:44:41.227Z,14.88
2023-05-21T01:45:41.274Z,14.91
2023-05-21T01:46:41.378Z,14.95
2023-05-21T01:47:41.398Z,15.00
2023-05-21T01:48:41.432Z,15.03
2023-05-21T01:49:41.426Z,15.04
2023-05-21T01:50:41.474Z,15.08
2023-05-21T01:51:41.508Z,15.13
2023-05-21T01:52:41.530Z,15.15
2023-05-21T01:53:41.591Z,15.12
2023-05-21T01:54:41.585Z,15.05
2023-05-21T01:55:41.607Z,14.98
2023-05-21T01:56:41.624Z,14.95
2023-05-21T01:57:41.682Z,15.00
2023-05-21T01:58:41.697Z,15.05
2023-05-21T01:59:41.701Z,15.06
2023-05-21T02:00:41.718Z,14.97
2023-05-21T02:01:41.785Z,14.91
2023-05-21T02:02:41.808Z,14.65
2023-05-21T02:03:41.882Z,14.50
2023-05-21T02:04:41.790Z,14.48
2023-05-21T02:05:41.812Z,14.56
2023-05-21T02:06:41.870Z,14.57
2023-05-21T02:07:41.957Z,14.56
2023-05-21T02:08:41.904Z,14.54
2023-05-21T02:09:41.943Z,14.50
2023-05-21T02:10:41.992Z,14.51
2023-05-21T02:11:42.026Z,14.54
2023-05-21T02:12:42.110Z,14.55
2023-05-21T02:13:42.113Z,14.56
2023-05-21T02:14:42.137Z,14.56
2023-05-21T02:16:52.580Z,14.64
2023-05-21T02:17:52.677Z,14.67
2023-05-21T02:18:52.671Z,14.70
2023-05-21T02:19:52.660Z,14.66
2023-05-21T02:20:52.641Z,14.63
2023-05-21T02:21:52.613Z,14.65
2023-05-21T02:22:52.589Z,14.50
2023-05-21T02:23:52.582Z,14.47
2023-05-21T02:24:52.545Z,14.43
2023-05-21T02:25:52.550Z,14.43
2023-05-21T02:26:52.624Z,14.42
2023-05-21T02:27:52.566Z,14.42
2023-05-21T02:28:52.562Z,14.45
2023-05-21T02:29:52.558Z,14.48
2023-05-21T02:30:52.563Z,14.45
2023-05-21T02:31:52.548Z,14.40
2023-05-21T02:32:52.558Z,14.38
2023-05-21T02:33:52.571Z,14.42
2023-05-21T02:34:52.488Z,14.44
2023-05-21T02:35:52.517Z,14.45
2023-05-21T02:36:52.545Z,14.47
2023-05-21T02:37:52.441Z,14.49
2023-05-21T02:38:52.441Z,14.52
2023-05-21T02:39:52.450Z,14.55
2023-05-21T02:40:52.470Z,14.56
2023-05-21T02:41:52.470Z,14.58
2023-05-21T02:42:52.448Z,14.57
2023-05-21T02:43:52.423Z,14.57
2023-05-21T02:44:52.409Z,14.51
2023-05-21T02:45:52.439Z,14.50
2023-05-21T02:46:52.463Z,14.53
2023-05-21T02:47:52.440Z,14.57
2023-05-21T02:48:52.369Z,14.60
2023-05-21T02:49:52.400Z,14.61
2023-05-21T02:50:52.407Z,14.63
2023-05-21T02:51:52.361Z,14.66
2023-05-21T02:52:52.436Z,14.68
2023-05-21T02:53:52.352Z,14.66
2023-05-21T02:54:52.361Z,14.65
2023-05-21T02:55:52.361Z,14.67
2023-05-21T02:56:52.392Z,14.64
2023-05-21T02:57:52.360Z,14.64
2023-05-21T02:58:52.360Z,14.58
2023-05-21T02:59:52.306Z,14.60
2023-05-21T03:00:52.437Z,14.57
2023-05-21T03:01:52.335Z,14.56
2023-05-21T03:02:52.368Z,14.53
2023-05-21T03:03:52.286Z,14.45
2023-05-21T03:04:52.279Z,14.43
2023-05-21T03:05:52.284Z,14.47
2023-05-21T03:06:52.278Z,14.47
2023-05-21T03:07:52.251Z,14.38
2023-05-21T03:08:52.251Z,14.36
2023-05-21T03:09:52.203Z,14.40
2023-05-21T03:10:52.251Z,14.45
2023-05-21T03:11:52.245Z,14.48
2023-05-21T03:12:52.243Z,14.28
2023-05-21T03:13:52.231Z,14.25
2023-05-21T03:14:52.235Z,14.29
2023-05-21T03:15:52.202Z,14.31
2023-05-21T03:16:52.236Z,14.33
2023-05-21T03:17:52.303Z,14.32
2023-05-21T03:18:52.235Z,14.33
2023-05-21T03:19:52.231Z,14.36
2023-05-21T03:20:52.290Z,14.39
2023-05-21T03:21:52.288Z,14.42
2023-05-21T03:22:52.307Z,14.45
2023-05-21T03:23:52.327Z,14.47
2023-05-21T03:24:52.358Z,14.41
2023-05-21T03:25:52.859Z,14.39
2023-05-21T03:26:52.430Z,14.12
2023-05-21T03:27:52.435Z,13.91
2023-05-21T03:28:52.541Z,13.75
2023-05-21T03:29:52.557Z,13.73
2023-05-21T03:30:52.547Z,13.80
2023-05-21T03:31:52.661Z,13.83
2023-05-21T03:32:52.773Z,13.89
2023-05-21T03:33:52.637Z,13.89
2023-05-21T03:34:52.630Z,13.94
2023-05-21T03:35:52.685Z,13.99
2023-05-21T03:36:52.654Z,14.06
2023-05-21T03:37:52.706Z,14.11
2023-05-21T03:38:52.716Z,14.07
2023-05-21T03:39:52.758Z,14.01
2023-05-21T03:40:52.770Z,13.93
2023-05-21T03:41:52.787Z,13.91
2023-05-21T03:42:52.842Z,13.90
2023-05-21T03:43:52.858Z,13.83
2023-05-21T03:44:52.894Z,13.82
2023-05-21T03:45:52.979Z,13.85
2023-05-21T03:46:53.029Z,13.84
2023-05-21T03:47:53.033Z,13.86
2023-05-21T03:48:53.032Z,13.94
2023-05-21T03:49:53.046Z,14.02
2023-05-21T03:50:53.097Z,14.08
2023-05-21T03:51:53.140Z,14.09
2023-05-21T03:52:53.137Z,13.99
2023-05-21T03:53:53.205Z,13.96
2023-05-21T03:54:53.245Z,13.99
2023-05-21T03:55:53.242Z,13.89
2023-05-21T03:56:53.287Z,13.93
2023-05-21T03:57:53.289Z,13.95
2023-05-21T03:58:53.365Z,13.96
2023-05-21T03:59:53.366Z,13.94
2023-05-21T04:00:53.432Z,13.95
2023-05-21T04:01:53.488Z,13.97
2023-05-21T04:02:53.573Z,13.91
2023-05-21T04:03:53.639Z,13.80
2023-05-21T04:04:53.720Z,13.71
2023-05-21T04:05:53.592Z,13.76
2023-05-21T04:06:53.608Z,13.77
2023-05-21T04:07:53.620Z,13.75
2023-05-21T04:08:53.663Z,13.86
2023-05-21T04:09:53.673Z,13.92
2023-05-21T04:10:53.730Z,13.91
2023-05-21T04:11:53.800Z,13.95
2023-05-21T04:12:53.749Z,13.85
2023-05-21T04:13:53.769Z,13.68
2023-05-21T04:14:53.777Z,13.43
2023-05-21T04:15:53.913Z,13.31
2023-05-21T04:16:53.900Z,13.39
2023-05-21T04:17:53.920Z,13.54
2023-05-21T04:18:54.024Z,13.69
2023-05-21T04:19:53.956Z,13.79
2023-05-21T04:20:54.023Z,13.82
2023-05-21T04:21:53.972Z,13.73
2023-05-21T04:22:53.978Z,13.70
2023-05-21T04:23:54.042Z,13.67
2023-05-21T04:24:54.039Z,13.72
2023-05-21T04:25:54.083Z,13.80
2023-05-21T04:26:54.153Z,13.89
2023-05-21T04:27:54.170Z,13.94
2023-05-21T04:28:54.224Z,13.87
2023-05-21T04:29:54.215Z,13.80
2023-05-21T04:30:54.322Z,13.92
2023-05-21T04:31:54.291Z,14.05
2023-05-21T04:32:54.292Z,14.17
2023-05-21T04:33:54.342Z,14.27
2023-05-21T04:34:54.378Z,14.32
2023-05-21T04:35:54.438Z,14.39
2023-05-21T04:36:54.469Z,14.41
2023-05-21T04:37:54.548Z,14.47
2023-05-21T04:38:54.553Z,14.57
2023-05-21T04:39:54.589Z,14.53
2023-05-21T04:40:54.597Z,14.42
2023-05-21T04:41:54.647Z,14.33
2023-05-21T04:42:54.634Z,14.31
2023-05-21T04:43:54.695Z,14.43
2023-05-21T04:44:54.714Z,14.56
2023-05-21T04:45:54.749Z,14.71
2023-05-21T04:46:54.943Z,14.84
2023-05-21T04:47:54.895Z,14.91
2023-05-21T04:48:54.963Z,14.84
2023-05-21T04:49:54.858Z,14.87
2023-05-21T04:50:54.895Z,14.89
2023-05-21T04:51:54.875Z,15.03
2023-05-21T04:52:54.963Z,15.19
2023-05-21T04:53:54.951Z,15.33
2023-05-21T04:54:54.913Z,15.48
2023-05-21T04:55:54.972Z,15.59
2023-05-21T04:56:54.980Z,15.69
2023-05-21T04:57:55.023Z,15.72
2023-05-21T04:58:55.018Z,15.71
2023-05-21T04:59:55.032Z,15.28
2023-05-21T05:00:55.135Z,15.03
2023-05-21T05:01:55.113Z,14.96
2023-05-21T05:02:55.257Z,15.09
2023-05-21T05:03:55.161Z,15.29
2023-05-21T05:04:55.180Z,15.48
2023-05-21T05:05:55.240Z,15.66
2023-05-21T05:06:55.263Z,15.73
2023-05-21T05:07:55.265Z,15.82
2023-05-21T05:08:55.287Z,15.97
2023-05-21T05:09:55.327Z,16.08
2023-05-21T05:10:55.361Z,16.13
2023-05-21T05:11:55.380Z,16.22
2023-05-21T05:12:55.415Z,16.30
2023-05-21T05:13:55.445Z,16.36
2023-05-21T05:14:55.509Z,16.46
2023-05-21T05:15:55.529Z,16.52
2023-05-21T05:16:55.614Z,16.53
2023-05-21T05:17:55.548Z,16.59
2023-05-21T05:18:55.579Z,16.67
2023-05-21T05:19:55.587Z,16.65
2023-05-21T05:20:55.604Z,16.60
2023-05-21T05:21:55.559Z,16.68
2023-05-21T05:22:55.605Z,16.71
2023-05-21T05:23:55.669Z,16.75
2023-05-21T05:24:55.692Z,16.73
2023-05-21T05:25:55.741Z,16.68
2023-05-21T05:26:55.726Z,16.48
2023-05-21T05:27:55.795Z,16.53
2023-05-21T05:28:55.804Z,16.63
2023-05-21T05:29:55.856Z,16.59
2023-05-21T05:30:55.889Z,16.70
2023-05-21T05:31:55.862Z,16.78
2023-05-21T05:32:55.968Z,16.82
2023-05-21T05:33:55.884Z,16.87
2023-05-21T05:34:56.046Z,16.89
2023-05-21T05:35:56.061Z,16.98
2023-05-21T05:36:56.076Z,16.89
2023-05-21T05:37:56.089Z,16.79
2023-05-21T05:38:56.093Z,16.86
2023-05-21T05:39:56.091Z,16.85
2023-05-21T05:40:56.123Z,16.90
2023-05-21T05:41:56.175Z,16.91
2023-05-21T05:42:56.164Z,16.98
2023-05-21T05:43:56.113Z,17.10
2023-05-21T05:44:56.155Z,17.17
2023-05-21T05:45:56.270Z,17.22
2023-05-21T05:46:56.307Z,17.11
2023-05-21T05:47:56.382Z,17.08
2023-05-21T05:48:56.389Z,17.07
2023-05-21T05:49:56.389Z,17.18
2023-05-21T05:50:56.470Z,17.29
2023-05-21T05:51:56.494Z,17.36
2023-05-21T05:52:56.512Z,17.46
2023-05-21T05:53:56.542Z,17.54
2023-05-21T05:54:56.599Z,17.61
2023-05-21T05:55:56.588Z,17.65
2023-05-21T05:56:56.624Z,17.72
2023-05-21T05:57:56.626Z,17.73
2023-05-21T05:58:56.709Z,17.87
2023-05-21T05:59:56.683Z,18.05
2023-05-21T06:00:56.754Z,18.16
2023-05-21T06:01:58.336Z,18.22
2023-05-21T06:02:56.927Z,18.25
2023-05-21T06:03:56.844Z,18.17
2023-05-21T06:04:56.828Z,18.17
2023-05-21T06:05:56.946Z,18.33
2023-05-21T06:06:56.855Z,18.34
2023-05-21T06:07:56.894Z,18.51
2023-05-21T06:08:56.936Z,18.59
2023-05-21T06:09:57.034Z,18.93
2023-05-21T06:10:56.975Z,19.25
2023-05-21T06:11:57.025Z,19.44
2023-05-21T06:12:57.025Z,19.48
2023-05-21T06:13:57.065Z,19.61
2023-05-21T06:14:57.112Z,19.72
2023-05-21T06:15:57.162Z,19.88
2023-05-21T06:16:57.160Z,20.04
2023-05-21T06:17:57.211Z,19.72
2023-05-21T06:18:57.240Z,19.73
2023-05-21T06:19:57.238Z,20.12
2023-05-21T06:20:57.289Z,20.42
2023-05-21T06:21:57.317Z,20.70
2023-05-21T06:22:57.301Z,20.87
2023-05-21T06:23:57.402Z,20.88
2023-05-21T06:24:57.437Z,20.56
2023-05-21T06:25:57.472Z,20.61
2023-05-21T06:26:57.436Z,20.63
2023-05-21T06:27:57.560Z,20.77
2023-05-21T06:28:57.555Z,20.68
2023-05-21T06:29:57.558Z,20.98
2023-05-21T06:30:57.562Z,21.24
2023-05-21T06:31:57.601Z,21.11
2023-05-21T06:32:57.738Z,21.27
2023-05-21T06:33:57.782Z,21.40
2023-05-21T06:34:57.757Z,21.56
2023-05-21T06:35:57.816Z,21.61
2023-05-21T06:36:57.809Z,21.76
2023-05-21T06:37:57.815Z,21.82
2023-05-21T06:38:57.871Z,20.94
2023-05-21T06:39:57.825Z,21.05
2023-05-21T06:40:57.952Z,21.06
2023-05-21T06:41:57.928Z,21.29
2023-05-21T06:42:57.956Z,21.50
2023-05-21T06:43:57.988Z,21.66
2023-05-21T06:44:57.995Z,21.75
2023-05-21T06:45:58.129Z,21.87
2023-05-21T06:46:58.101Z,21.69
2023-05-21T06:47:58.129Z,21.79
2023-05-21T06:48:58.128Z,21.96
2023-05-21T06:49:58.159Z,22.09
2023-05-21T06:50:58.197Z,22.08
2023-05-21T06:51:58.218Z,22.10
2023-05-21T06:52:58.247Z,22.18
2023-05-21T06:53:58.260Z,22.21
2023-05-21T06:54:58.296Z,22.25
2023-05-21T06:55:58.347Z,21.67
2023-05-21T06:56:58.357Z,21.76
2023-05-21T06:57:58.364Z,21.99
2023-05-21T06:58:58.363Z,22.08
2023-05-21T06:59:58.413Z,22.20
2023-05-21T07:00:58.521Z,22.41
2023-05-21T07:01:58.502Z,22.42
2023-05-21T07:02:58.632Z,22.52
2023-05-21T07:03:58.546Z,22.63
2023-05-21T07:04:58.536Z,22.79
2023-05-21T07:05:58.632Z,22.85
2023-05-21T07:06:58.642Z,23.15
2023-05-21T07:07:58.654Z,23.50
2023-05-21T07:08:58.640Z,23.68
2023-05-21T07:09:58.715Z,23.69
2023-05-21T07:10:58.742Z,23.66
2023-05-21T07:11:58.695Z,23.92
2023-05-21T07:12:58.756Z,24.15
2023-05-21T07:13:58.791Z,24.31
2023-05-21T07:14:59.431Z,24.54
2023-05-21T07:15:58.827Z,24.66
2023-05-21T07:16:58.948Z,24.99
2023-05-21T07:17:58.968Z,25.11
2023-05-21T07:18:59.026Z,25.24
2023-05-21T07:19:59.032Z,25.12
2023-05-21T07:20:59.185Z,24.91
2023-05-21T07:21:59.034Z,25.14
2023-05-21T07:22:59.037Z,25.28
2023-05-21T07:23:59.097Z,25.24
2023-05-21T07:24:59.113Z,25.48
2023-05-21T07:25:59.164Z,25.66
2023-05-21T07:26:59.165Z,25.88
2023-05-21T07:27:59.196Z,26.03
2023-05-21T07:28:59.235Z,26.02
2023-05-21T07:29:59.260Z,25.83
2023-05-21T07:30:59.371Z,25.70
2023-05-21T07:31:59.367Z,25.95
2023-05-21T07:32:59.438Z,26.13
2023-05-21T07:33:59.420Z,26.46
2023-05-21T07:34:59.426Z,26.33
2023-05-21T07:35:59.447Z,26.52
2023-05-21T07:36:59.549Z,26.61
2023-05-21T07:37:59.527Z,26.47
2023-05-21T07:38:59.961Z,26.75
2023-05-21T07:39:59.540Z,27.16
2023-05-21T07:40:59.588Z,27.42
2023-05-21T07:41:59.574Z,27.53
2023-05-21T07:42:59.599Z,27.41
2023-05-21T07:43:59.674Z,27.20
2023-05-21T07:44:59.722Z,27.32
2023-05-21T07:45:59.770Z,27.54
2023-05-21T07:46:59.774Z,27.03
2023-05-21T07:47:59.855Z,27.22
2023-05-21T07:48:59.859Z,27.43
2023-05-21T07:49:59.983Z,27.01
2023-05-21T07:50:59.955Z,26.91
2023-05-21T07:51:59.951Z,27.30
2023-05-21T07:53:00.033Z,27.29
2023-05-21T07:53:59.980Z,27.69
2023-05-21T07:54:59.997Z,28.13
2023-05-21T07:56:00.052Z,28.36
2023-05-21T07:57:00.102Z,28.68
2023-05-21T07:58:00.107Z,27.99
2023-05-21T07:59:00.151Z,27.38
2023-05-21T08:00:00.134Z,27.59
2023-05-21T08:01:00.179Z,27.65
2023-05-21T08:02:00.179Z,27.88
2023-05-21T08:03:00.334Z,28.23
2023-05-21T08:04:00.393Z,28.11
2023-05-21T08:05:00.379Z,28.34
2023-05-21T08:06:01.131Z,28.17
2023-05-21T08:07:00.403Z,28.31
2023-05-21T08:08:00.398Z,28.15
2023-05-21T08:09:00.459Z,28.41
2023-05-21T08:10:02.539Z,28.77
2023-05-21T08:11:00.503Z,28.36
2023-05-21T08:12:00.482Z,28.43
2023-05-21T08:13:00.450Z,28.50
2023-05-21T08:14:00.485Z,28.98
2023-05-21T08:15:00.475Z,29.28
2023-05-21T08:16:00.581Z,29.60
2023-05-21T08:17:00.577Z,29.61
2023-05-21T08:18:00.608Z,29.71
2023-05-21T08:19:00.731Z,29.95
2023-05-21T08:20:00.621Z,30.08
2023-05-21T08:21:00.672Z,30.12
2023-05-21T08:22:00.691Z,30.10
2023-05-21T08:23:00.728Z,30.44
2023-05-21T08:24:00.760Z,30.88
2023-05-21T08:25:00.731Z,31.32
2023-05-21T08:26:00.806Z,31.62
2023-05-21T08:27:00.807Z,31.33
2023-05-21T08:28:00.874Z,31.64
2023-05-21T08:29:00.893Z,31.07
2023-05-21T08:30:00.907Z,30.62
2023-05-21T08:31:00.948Z,30.55
2023-05-21T08:32:01.070Z,31.02
2023-05-21T08:33:01.088Z,30.47
2023-05-21T08:34:01.029Z,30.17
2023-05-21T08:35:02.150Z,30.84
2023-05-21T08:36:01.126Z,30.53
2023-05-21T08:37:01.208Z,30.51
2023-05-21T08:38:01.209Z,30.49
2023-05-21T08:39:01.237Z,30.35
2023-05-21T08:40:01.252Z,30.00
2023-05-21T08:41:01.315Z,29.74
2023-05-21T08:42:01.328Z,30.38
2023-05-21T08:43:01.363Z,30.79
2023-05-21T08:44:01.407Z,30.88
2023-05-21T08:45:01.411Z,30.97
2023-05-21T08:46:01.523Z,31.44
2023-05-21T08:47:01.500Z,30.69
2023-05-21T08:48:01.530Z,31.13
2023-05-21T08:49:01.575Z,31.71
2023-05-21T08:50:01.605Z,31.99
2023-05-21T08:51:01.659Z,32.37
2023-05-21T08:52:01.692Z,32.66
2023-05-21T08:53:04.028Z,33.06
2023-05-21T08:54:02.680Z,32.58
2023-05-21T08:55:01.677Z,32.31
2023-05-21T08:56:01.667Z,32.15
2023-05-21T08:57:01.667Z,32.24
2023-05-21T08:58:01.705Z,32.10
2023-05-21T08:59:01.660Z,31.57
2023-05-21T09:00:01.642Z,31.66
2023-05-21T09:01:01.670Z,31.75
2023-05-21T09:02:01.754Z,31.61
2023-05-21T09:03:01.753Z,31.97
2023-05-21T09:04:12.217Z,31.88
2023-05-21T09:05:02.635Z,30.77
2023-05-21T09:06:01.653Z,29.51
2023-05-21T09:07:01.605Z,30.47
2023-05-21T09:08:01.566Z,31.24
2023-05-21T09:09:01.593Z,31.82
2023-05-21T09:10:01.558Z,32.05
2023-05-21T09:11:01.618Z,32.00
2023-05-21T09:12:01.591Z,31.98
2023-05-21T09:13:01.534Z,31.82
2023-05-21T09:14:01.534Z,32.16
2023-05-21T09:15:01.560Z,32.22
2023-05-21T09:16:01.591Z,30.47
2023-05-21T09:17:01.657Z,29.59
2023-05-21T09:18:01.605Z,30.41
2023-05-21T09:19:04.377Z,30.59
2023-05-21T09:20:01.555Z,30.02
2023-05-21T09:21:01.587Z,28.23
2023-05-21T09:22:01.563Z,27.32
2023-05-21T09:23:01.534Z,27.59
2023-05-21T09:24:01.618Z,28.33
2023-05-21T09:25:01.561Z,28.89
2023-05-21T09:26:01.559Z,29.50
2023-05-21T09:27:01.501Z,30.06
2023-05-21T09:28:01.518Z,30.37
2023-05-21T09:29:01.523Z,30.61
2023-05-21T09:30:01.525Z,30.90
2023-05-21T09:31:01.533Z,31.17
2023-05-21T09:32:01.506Z,31.14
2023-05-21T09:33:01.544Z,31.13
2023-05-21T09:34:01.546Z,30.52
2023-05-21T09:35:01.445Z,29.87
2023-05-21T09:36:01.489Z,30.03
2023-05-21T09:37:01.420Z,29.40
2023-05-21T09:38:01.427Z,29.33
2023-05-21T09:39:01.409Z,30.23
2023-05-21T09:40:01.452Z,30.81
2023-05-21T09:41:01.427Z,30.92
2023-05-21T09:42:01.444Z,30.46
2023-05-21T09:43:01.370Z,29.53
2023-05-21T09:44:01.386Z,29.90
2023-05-21T09:45:01.387Z,29.69
2023-05-21T09:46:02.313Z,29.74
2023-05-21T09:47:01.388Z,29.67
2023-05-21T09:48:01.426Z,30.23
2023-05-21T09:49:01.364Z,30.70
2023-05-21T09:50:01.389Z,30.76
2023-05-21T09:51:01.385Z,30.70
2023-05-21T09:52:01.312Z,31.12
2023-05-21T09:53:01.311Z,31.46
2023-05-21T09:54:01.325Z,31.04
2023-05-21T09:55:01.386Z,31.45
2023-05-21T09:56:01.317Z,31.11
2023-05-21T09:57:01.291Z,30.72
2023-05-21T09:58:01.300Z,30.16
2023-05-21T09:59:01.329Z,29.30
2023-05-21T10:00:01.314Z,28.47
2023-05-21T10:01:01.296Z,27.64
2023-05-21T10:02:01.398Z,28.29
2023-05-21T10:03:01.352Z,28.00
2023-05-21T10:04:01.307Z,28.66
2023-05-21T10:05:01.285Z,29.20
2023-05-21T10:06:01.286Z,29.04
2023-05-21T10:07:01.218Z,28.70
2023-05-21T10:08:01.256Z,28.54
2023-05-21T10:09:02.542Z,27.94
2023-05-21T10:10:01.227Z,28.37
2023-05-21T10:11:01.222Z,28.64
2023-05-21T10:12:01.226Z,28.59
2023-05-21T10:13:01.216Z,28.62
2023-05-21T10:14:01.194Z,28.89
2023-05-21T10:15:01.164Z,28.77
2023-05-21T10:16:01.261Z,28.85
2023-05-21T10:17:01.195Z,29.14
2023-05-21T10:18:01.260Z,29.08
2023-05-21T10:19:01.257Z,29.12
2023-05-21T10:20:01.168Z,29.43
2023-05-21T10:21:01.179Z,27.82
2023-05-21T10:22:01.150Z,27.65
2023-05-21T10:23:01.147Z,28.58
2023-05-21T10:24:01.169Z,28.89
2023-05-21T10:25:01.137Z,29.02
2023-05-21T10:26:01.104Z,29.34
2023-05-21T10:27:01.113Z,29.65
2023-05-21T10:28:01.079Z,29.97
2023-05-21T10:29:01.105Z,30.25
2023-05-21T10:30:01.139Z,30.26
2023-05-21T10:31:01.084Z,30.44
2023-05-21T10:32:01.193Z,30.52
2023-05-21T10:33:01.228Z,30.15
2023-05-21T10:34:01.071Z,30.27
2023-05-21T10:35:01.883Z,29.88
2023-05-21T10:36:01.077Z,30.08
2023-05-21T10:37:01.061Z,30.09
2023-05-21T10:38:01.087Z,30.15
2023-05-21T10:39:00.999Z,29.96
2023-05-21T10:40:01.041Z,29.93
2023-05-21T10:41:01.000Z,30.12
2023-05-21T10:42:01.025Z,29.88
2023-05-21T10:43:01.011Z,29.41
2023-05-21T10:44:01.006Z,28.81
2023-05-21T10:45:00.985Z,28.06
2023-05-21T10:46:01.077Z,28.43
2023-05-21T10:47:00.972Z,28.99
2023-05-21T10:48:01.028Z,28.32
2023-05-21T10:49:00.972Z,28.73
2023-05-21T10:50:00.978Z,29.24
2023-05-21T10:51:00.980Z,29.02
2023-05-21T10:52:00.958Z,29.17
2023-05-21T10:53:01.007Z,29.49
2023-05-21T10:54:00.936Z,29.83
2023-05-21T10:55:00.929Z,29.64
2023-05-21T10:56:00.962Z,29.85
2023-05-21T10:57:00.966Z,29.58
2023-05-21T10:58:00.879Z,29.64
2023-05-21T10:59:00.880Z,29.96
2023-05-21T11:00:01.009Z,29.58
2023-05-21T11:01:01.094Z,29.20
2023-05-21T11:02:01.056Z,29.20
2023-05-21T11:03:01.080Z,29.26
2023-05-21T11:04:01.195Z,29.50
2023-05-21T11:05:01.114Z,29.64
2023-05-21T11:06:01.127Z,29.82
2023-05-21T11:07:01.094Z,29.17
2023-05-21T11:08:01.174Z,29.36
2023-05-21T11:09:01.212Z,29.18
2023-05-21T11:10:01.224Z,28.81
2023-05-21T11:11:01.281Z,29.16
2023-05-21T11:12:01.277Z,29.40
2023-05-21T11:13:01.259Z,29.51
2023-05-21T11:14:01.322Z,29.73
2023-05-21T11:15:01.298Z,29.44
2023-05-21T11:16:01.364Z,29.56
2023-05-21T11:17:01.423Z,29.39
2023-05-21T11:18:01.468Z,29.32
2023-05-21T11:19:01.530Z,29.74
2023-05-21T11:20:01.534Z,30.01
2023-05-21T11:21:01.548Z,29.90
2023-05-21T11:22:01.500Z,29.88
2023-05-21T11:23:01.570Z,30.15
2023-05-21T11:24:01.640Z,30.24
2023-05-21T11:25:01.635Z,30.26
2023-05-21T11:26:01.737Z,30.41
2023-05-21T11:27:01.693Z,30.65
2023-05-21T11:28:01.762Z,30.97
2023-05-21T11:29:01.758Z,31.17
2023-05-21T11:30:01.818Z,30.99
2023-05-21T11:31:01.850Z,31.21
2023-05-21T11:32:01.881Z,31.58
2023-05-21T11:33:01.945Z,31.72
2023-05-21T11:34:01.945Z,31.61
2023-05-21T11:35:02.054Z,31.77
2023-05-21T11:36:02.016Z,31.52
2023-05-21T11:37:02.014Z,31.29
2023-05-21T11:38:02.021Z,31.24
2023-05-21T11:39:02.074Z,31.36
2023-05-21T11:40:02.131Z,31.58
2023-05-21T11:41:02.166Z,31.64
2023-05-21T11:42:04.465Z,31.17
2023-05-21T11:43:02.312Z,31.08
2023-05-21T11:44:02.387Z,31.25
2023-05-21T11:45:02.483Z,31.19
2023-05-21T11:46:02.550Z,30.97
2023-05-21T11:47:02.518Z,30.90
2023-05-21T11:48:02.583Z,31.00
2023-05-21T11:49:02.506Z,31.11
2023-05-21T11:50:02.585Z,30.86
2023-05-21T11:51:02.569Z,30.86
2023-05-21T11:52:02.644Z,30.76
2023-05-21T11:53:02.663Z,31.06
2023-05-21T11:54:02.674Z,31.30
2023-05-21T11:55:02.695Z,31.52
2023-05-21T11:56:02.772Z,31.67
2023-05-21T11:57:02.762Z,31.91
2023-05-21T11:58:02.772Z,32.27
2023-05-21T11:59:02.864Z,32.56
2023-05-21T12:00:02.826Z,32.82
2023-05-21T12:01:02.913Z,32.55
2023-05-21T12:02:02.909Z,32.11
2023-05-21T12:03:02.978Z,32.31
2023-05-21T12:04:03.082Z,32.39
2023-05-21T12:05:03.036Z,32.63
2023-05-21T12:06:03.129Z,32.84
2023-05-21T12:07:03.082Z,32.92
2023-05-21T12:08:03.102Z,32.40
2023-05-21T12:09:03.112Z,32.08
2023-05-21T12:10:03.178Z,31.78
2023-05-21T12:11:03.216Z,31.80
2023-05-21T12:12:03.211Z,31.99
2023-05-21T12:13:04.956Z,31.88
2023-05-21T12:14:03.396Z,31.42
2023-05-21T12:15:03.365Z,31.22
2023-05-21T12:16:05.908Z,31.05
2023-05-21T12:17:03.358Z,31.25
2023-05-21T12:18:03.432Z,31.30
2023-05-21T12:19:03.411Z,31.46
2023-05-21T12:20:03.846Z,31.81
2023-05-21T12:21:03.341Z,31.56
2023-05-21T12:22:03.358Z,31.73
2023-05-21T12:23:03.330Z,31.92
2023-05-21T12:24:03.303Z,31.95
2023-05-21T12:25:03.303Z,31.97
2023-05-21T12:26:03.324Z,32.18
2023-05-21T12:27:03.312Z,32.14
2023-05-21T12:28:03.317Z,32.28
2023-05-21T12:29:03.309Z,32.39
2023-05-21T12:30:03.289Z,32.60
2023-05-21T12:31:03.303Z,32.96
2023-05-21T12:32:03.368Z,32.72
2023-05-21T12:33:03.302Z,32.79
2023-05-21T12:34:03.267Z,33.20
2023-05-21T12:35:03.259Z,33.02
2023-05-21T12:36:03.298Z,33.27
2023-05-21T12:37:03.239Z,33.65
2023-05-21T12:38:03.246Z,33.84
2023-05-21T12:39:03.261Z,33.99
2023-05-21T12:40:03.266Z,34.33
2023-05-21T12:41:03.303Z,34.34
2023-05-21T12:42:03.222Z,34.73
2023-05-21T12:43:03.182Z,34.70
2023-05-21T12:44:03.196Z,34.67
2023-05-21T12:45:03.212Z,34.87
2023-05-21T12:46:03.306Z,34.40
2023-05-21T12:47:03.209Z,33.82
2023-05-21T12:48:03.216Z,33.67
2023-05-21T12:49:03.183Z,33.94
2023-05-21T12:50:03.175Z,34.20
2023-05-21T12:51:03.185Z,34.05
2023-05-21T12:52:03.173Z,33.81
2023-05-21T12:53:03.149Z,32.62
2023-05-21T12:54:03.151Z,32.68